sensor_id;sensor_type;location;lat;lon;timestamp;P1;durP1;ratioP1;P2;durP2;ratioP2
38693;SDS011;24447;43.460;25.744;2022-12-29T00:02:15;33.17;;;10.93;;
38693;SDS011;24447;43.460;25.744;2022-12-29T00:04:41;34.45;;;11.32;;
38693;SDS011;24447;43.460;25.744;2022-12-29T00:07:07;32.85;;;11.15;;
38693;SDS011;24447;43.460;25.744;2022-12-29T00:09:34;36.08;;;10.82;;
38693;SDS011;24447;43.460;25.744;2022-12-29T00:12:00;31.92;;;13.50;;
38693;SDS011;24447;43.460;25.744;2022-12-29T00:14:28;29.58;;;12.02;;
38693;SDS011;24447;43.460;25.744;2022-12-29T00:17:12;30.92;;;13.32;;
38693;SDS011;24447;43.460;25.744;2022-12-29T00:19:38;41.20;;;13.55;;
38693;SDS011;24447;43.460;25.744;2022-12-29T00:22:23;34.10;;;10.45;;
38693;SDS011;24447;43.460;25.744;2022-12-29T00:25:09;38.60;;;15.00;;
38693;SDS011;24447;43.460;25.744;2022-12-29T00:27:54;31.33;;;11.55;;
38693;SDS011;24447;43.460;25.744;2022-12-29T00:30:39;32.85;;;13.07;;
38693;SDS011;24447;43.460;25.744;2022-12-29T00:33:31;28.38;;;10.35;;
38693;SDS011;24447;43.460;25.744;2022-12-29T00:36:36;23.25;;;9.43;;
38693;SDS011;24447;43.460;25.744;2022-12-29T00:39:07;22.05;;;7.90;;
38693;SDS011;24447;43.460;25.744;2022-12-29T00:41:55;24.20;;;7.00;;
38693;SDS011;24447;43.460;25.744;2022-12-29T00:44:39;18.60;;;6.90;;
38693;SDS011;24447;43.460;25.744;2022-12-29T00:47:05;25.15;;;7.38;;
38693;SDS011;24447;43.460;25.744;2022-12-29T00:49:31;20.00;;;6.95;;
38693;SDS011;24447;43.460;25.744;2022-12-29T00:54:30;18.83;;;6.07;;
38693;SDS011;24447;43.460;25.744;2022-12-29T00:57:00;20.53;;;6.83;;
38693;SDS011;24447;43.460;25.744;2022-12-29T00:59:27;16.52;;;7.03;;
38693;SDS011;24447;43.460;25.744;2022-12-29T01:01:53;20.55;;;6.97;;
38693;SDS011;24447;43.460;25.744;2022-12-29T01:04:20;19.17;;;7.15;;
38693;SDS011;24447;43.460;25.744;2022-12-29T01:06:47;12.80;;;6.28;;
38693;SDS011;24447;43.460;25.744;2022-12-29T01:09:13;23.45;;;6.80;;
38693;SDS011;24447;43.460;25.744;2022-12-29T01:11:57;18.55;;;6.68;;
38693;SDS011;24447;43.460;25.744;2022-12-29T01:14:24;16.80;;;6.28;;
38693;SDS011;24447;43.460;25.744;2022-12-29T01:16:50;17.38;;;5.78;;
38693;SDS011;24447;43.460;25.744;2022-12-29T01:19:17;19.48;;;6.88;;
38693;SDS011;24447;43.460;25.744;2022-12-29T01:21:43;16.17;;;6.38;;
38693;SDS011;24447;43.460;25.744;2022-12-29T01:24:09;18.58;;;7.38;;
38693;SDS011;24447;43.460;25.744;2022-12-29T01:26:35;18.75;;;6.40;;
38693;SDS011;24447;43.460;25.744;2022-12-29T01:29:01;18.52;;;7.88;;
38693;SDS011;24447;43.460;25.744;2022-12-29T01:31:28;22.00;;;7.60;;
38693;SDS011;24447;43.460;25.744;2022-12-29T01:33:53;15.32;;;5.38;;
38693;SDS011;24447;43.460;25.744;2022-12-29T01:36:19;17.73;;;6.38;;
38693;SDS011;24447;43.460;25.744;2022-12-29T01:38:45;14.05;;;5.43;;
38693;SDS011;24447;43.460;25.744;2022-12-29T01:41:12;14.07;;;5.57;;
38693;SDS011;24447;43.460;25.744;2022-12-29T01:46:58;15.93;;;6.03;;
38693;SDS011;24447;43.460;25.744;2022-12-29T01:49:16;12.38;;;5.55;;
38693;SDS011;24447;43.460;25.744;2022-12-29T01:51:51;16.65;;;6.20;;
38693;SDS011;24447;43.460;25.744;2022-12-29T01:54:24;13.82;;;6.00;;
38693;SDS011;24447;43.460;25.744;2022-12-29T01:56:55;14.30;;;5.88;;
38693;SDS011;24447;43.460;25.744;2022-12-29T01:59:24;12.25;;;5.03;;
38693;SDS011;24447;43.460;25.744;2022-12-29T02:01:54;14.30;;;5.47;;
38693;SDS011;24447;43.460;25.744;2022-12-29T02:04:20;13.55;;;4.80;;
38693;SDS011;24447;43.460;25.744;2022-12-29T02:06:53;16.85;;;6.00;;
38693;SDS011;24447;43.460;25.744;2022-12-29T02:09:20;21.48;;;7.90;;
38693;SDS011;24447;43.460;25.744;2022-12-29T02:11:48;15.68;;;5.88;;
38693;SDS011;24447;43.460;25.744;2022-12-29T02:14:14;13.98;;;5.47;;
38693;SDS011;24447;43.460;25.744;2022-12-29T02:21:54;11.05;;;4.18;;
38693;SDS011;24447;43.460;25.744;2022-12-29T02:24:32;12.00;;;4.28;;
38693;SDS011;24447;43.460;25.744;2022-12-29T02:43:51;13.05;;;4.82;;
38693;SDS011;24447;43.460;25.744;2022-12-29T02:46:26;11.35;;;4.38;;
38693;SDS011;24447;43.460;25.744;2022-12-29T02:49:03;12.55;;;4.60;;
38693;SDS011;24447;43.460;25.744;2022-12-29T02:54:28;14.57;;;4.78;;
38693;SDS011;24447;43.460;25.744;2022-12-29T02:57:27;12.15;;;4.50;;
38693;SDS011;24447;43.460;25.744;2022-12-29T03:07:55;64.50;;;23.25;;
38693;SDS011;24447;43.460;25.744;2022-12-29T03:10:50;30.17;;;11.32;;
38693;SDS011;24447;43.460;25.744;2022-12-29T03:22:06;15.98;;;5.93;;
38693;SDS011;24447;43.460;25.744;2022-12-29T03:24:53;12.82;;;4.20;;
38693;SDS011;24447;43.460;25.744;2022-12-29T03:27:24;13.95;;;4.85;;
38693;SDS011;24447;43.460;25.744;2022-12-29T03:29:54;9.10;;;3.65;;
38693;SDS011;24447;43.460;25.744;2022-12-29T03:32:23;29.85;;;10.00;;
38693;SDS011;24447;43.460;25.744;2022-12-29T03:34:51;21.00;;;7.35;;
38693;SDS011;24447;43.460;25.744;2022-12-29T03:37:20;22.70;;;4.55;;
38693;SDS011;24447;43.460;25.744;2022-12-29T03:39:49;13.48;;;4.82;;
38693;SDS011;24447;43.460;25.744;2022-12-29T03:42:16;9.55;;;3.88;;
38693;SDS011;24447;43.460;25.744;2022-12-29T03:44:44;11.70;;;4.22;;
38693;SDS011;24447;43.460;25.744;2022-12-29T03:47:11;20.30;;;5.65;;
38693;SDS011;24447;43.460;25.744;2022-12-29T03:49:38;11.88;;;5.18;;
38693;SDS011;24447;43.460;25.744;2022-12-29T03:52:04;24.35;;;9.30;;
38693;SDS011;24447;43.460;25.744;2022-12-29T03:54:31;25.00;;;8.68;;
38693;SDS011;24447;43.460;25.744;2022-12-29T03:56:57;17.17;;;5.60;;
38693;SDS011;24447;43.460;25.744;2022-12-29T03:59:23;15.43;;;4.45;;
38693;SDS011;24447;43.460;25.744;2022-12-29T04:01:49;15.25;;;5.95;;
38693;SDS011;24447;43.460;25.744;2022-12-29T04:04:15;18.45;;;5.50;;
38693;SDS011;24447;43.460;25.744;2022-12-29T04:06:41;17.65;;;6.57;;
38693;SDS011;24447;43.460;25.744;2022-12-29T04:09:07;18.27;;;7.57;;
38693;SDS011;24447;43.460;25.744;2022-12-29T04:11:36;22.58;;;7.18;;
38693;SDS011;24447;43.460;25.744;2022-12-29T04:14:02;19.08;;;5.65;;
38693;SDS011;24447;43.460;25.744;2022-12-29T04:16:28;12.93;;;5.95;;
38693;SDS011;24447;43.460;25.744;2022-12-29T04:18:53;17.08;;;4.90;;
38693;SDS011;24447;43.460;25.744;2022-12-29T04:21:19;10.77;;;4.13;;
38693;SDS011;24447;43.460;25.744;2022-12-29T04:23:45;11.95;;;4.25;;
38693;SDS011;24447;43.460;25.744;2022-12-29T04:26:11;12.60;;;4.78;;
38693;SDS011;24447;43.460;25.744;2022-12-29T04:28:37;12.80;;;4.97;;
38693;SDS011;24447;43.460;25.744;2022-12-29T04:31:04;13.27;;;4.88;;
38693;SDS011;24447;43.460;25.744;2022-12-29T04:33:30;12.55;;;4.72;;
38693;SDS011;24447;43.460;25.744;2022-12-29T04:35:56;10.45;;;4.18;;
38693;SDS011;24447;43.460;25.744;2022-12-29T04:38:22;12.55;;;3.95;;
38693;SDS011;24447;43.460;25.744;2022-12-29T04:40:49;13.65;;;5.95;;
38693;SDS011;24447;43.460;25.744;2022-12-29T04:43:15;11.80;;;4.95;;
38693;SDS011;24447;43.460;25.744;2022-12-29T04:45:44;18.48;;;7.00;;
38693;SDS011;24447;43.460;25.744;2022-12-29T04:48:10;16.33;;;5.63;;
38693;SDS011;24447;43.460;25.744;2022-12-29T04:50:38;28.42;;;10.07;;
38693;SDS011;24447;43.460;25.744;2022-12-29T04:53:04;63.35;;;23.40;;
38693;SDS011;24447;43.460;25.744;2022-12-29T04:55:30;38.72;;;16.15;;
38693;SDS011;24447;43.460;25.744;2022-12-29T04:57:56;31.48;;;10.75;;
38693;SDS011;24447;43.460;25.744;2022-12-29T05:00:22;25.48;;;8.00;;
38693;SDS011;24447;43.460;25.744;2022-12-29T05:02:48;23.10;;;9.77;;
38693;SDS011;24447;43.460;25.744;2022-12-29T05:05:14;28.45;;;9.98;;
38693;SDS011;24447;43.460;25.744;2022-12-29T05:07:40;24.73;;;8.95;;
38693;SDS011;24447;43.460;25.744;2022-12-29T05:10:06;24.00;;;10.05;;
38693;SDS011;24447;43.460;25.744;2022-12-29T05:12:34;25.20;;;9.43;;
38693;SDS011;24447;43.460;25.744;2022-12-29T05:15:01;24.20;;;8.32;;
38693;SDS011;24447;43.460;25.744;2022-12-29T05:20:39;18.52;;;6.93;;
38693;SDS011;24447;43.460;25.744;2022-12-29T05:23:05;19.10;;;7.35;;
38693;SDS011;24447;43.460;25.744;2022-12-29T05:25:31;25.02;;;9.88;;
38693;SDS011;24447;43.460;25.744;2022-12-29T05:27:57;25.08;;;10.68;;
38693;SDS011;24447;43.460;25.744;2022-12-29T05:30:23;17.85;;;7.07;;
38693;SDS011;24447;43.460;25.744;2022-12-29T05:32:49;18.85;;;6.70;;
38693;SDS011;24447;43.460;25.744;2022-12-29T05:35:15;26.10;;;6.57;;
38693;SDS011;24447;43.460;25.744;2022-12-29T05:37:41;18.35;;;6.95;;
38693;SDS011;24447;43.460;25.744;2022-12-29T05:40:07;23.02;;;7.38;;
38693;SDS011;24447;43.460;25.744;2022-12-29T05:42:33;22.58;;;7.85;;
38693;SDS011;24447;43.460;25.744;2022-12-29T05:44:59;27.05;;;8.85;;
38693;SDS011;24447;43.460;25.744;2022-12-29T05:47:25;23.00;;;7.78;;
38693;SDS011;24447;43.460;25.744;2022-12-29T05:49:51;21.10;;;7.88;;
38693;SDS011;24447;43.460;25.744;2022-12-29T05:55:10;20.60;;;6.28;;
38693;SDS011;24447;43.460;25.744;2022-12-29T05:57:36;19.85;;;6.65;;
38693;SDS011;24447;43.460;25.744;2022-12-29T06:00:06;18.45;;;6.25;;
38693;SDS011;24447;43.460;25.744;2022-12-29T06:02:33;45.78;;;13.88;;
38693;SDS011;24447;43.460;25.744;2022-12-29T06:04:59;42.85;;;16.13;;
38693;SDS011;24447;43.460;25.744;2022-12-29T06:07:24;32.00;;;11.90;;
38693;SDS011;24447;43.460;25.744;2022-12-29T06:09:50;25.27;;;8.00;;
38693;SDS011;24447;43.460;25.744;2022-12-29T06:12:16;21.88;;;6.70;;
38693;SDS011;24447;43.460;25.744;2022-12-29T06:14:42;25.08;;;9.55;;
38693;SDS011;24447;43.460;25.744;2022-12-29T06:17:08;17.50;;;8.23;;
38693;SDS011;24447;43.460;25.744;2022-12-29T06:19:34;25.05;;;8.40;;
38693;SDS011;24447;43.460;25.744;2022-12-29T06:22:06;23.38;;;9.27;;
38693;SDS011;24447;43.460;25.744;2022-12-29T06:24:32;18.20;;;7.25;;
38693;SDS011;24447;43.460;25.744;2022-12-29T06:26:58;15.73;;;6.97;;
38693;SDS011;24447;43.460;25.744;2022-12-29T06:29:24;13.00;;;5.63;;
38693;SDS011;24447;43.460;25.744;2022-12-29T06:31:50;19.10;;;5.95;;
38693;SDS011;24447;43.460;25.744;2022-12-29T06:34:21;16.98;;;6.53;;
38693;SDS011;24447;43.460;25.744;2022-12-29T06:36:47;21.75;;;7.53;;
38693;SDS011;24447;43.460;25.744;2022-12-29T06:39:13;31.40;;;11.43;;
38693;SDS011;24447;43.460;25.744;2022-12-29T06:41:38;29.38;;;10.68;;
38693;SDS011;24447;43.460;25.744;2022-12-29T06:44:04;26.15;;;8.77;;
38693;SDS011;24447;43.460;25.744;2022-12-29T06:46:30;23.65;;;8.43;;
38693;SDS011;24447;43.460;25.744;2022-12-29T06:48:56;23.42;;;8.35;;
38693;SDS011;24447;43.460;25.744;2022-12-29T06:51:22;18.50;;;5.78;;
38693;SDS011;24447;43.460;25.744;2022-12-29T06:53:51;17.35;;;6.20;;
38693;SDS011;24447;43.460;25.744;2022-12-29T06:56:17;14.07;;;5.15;;
38693;SDS011;24447;43.460;25.744;2022-12-29T06:58:43;17.75;;;6.68;;
38693;SDS011;24447;43.460;25.744;2022-12-29T07:01:09;18.30;;;6.07;;
38693;SDS011;24447;43.460;25.744;2022-12-29T07:03:35;20.55;;;6.60;;
38693;SDS011;24447;43.460;25.744;2022-12-29T07:06:01;15.20;;;5.65;;
38693;SDS011;24447;43.460;25.744;2022-12-29T07:08:27;17.85;;;6.55;;
38693;SDS011;24447;43.460;25.744;2022-12-29T07:10:53;29.73;;;6.75;;
38693;SDS011;24447;43.460;25.744;2022-12-29T07:13:19;26.25;;;10.20;;
38693;SDS011;24447;43.460;25.744;2022-12-29T07:15:45;27.02;;;9.27;;
38693;SDS011;24447;43.460;25.744;2022-12-29T07:18:11;25.73;;;9.38;;
38693;SDS011;24447;43.460;25.744;2022-12-29T07:20:37;22.98;;;8.30;;
38693;SDS011;24447;43.460;25.744;2022-12-29T07:23:03;21.23;;;8.70;;
38693;SDS011;24447;43.460;25.744;2022-12-29T07:25:29;31.88;;;10.30;;
38693;SDS011;24447;43.460;25.744;2022-12-29T07:27:55;19.02;;;8.32;;
38693;SDS011;24447;43.460;25.744;2022-12-29T07:30:20;25.23;;;7.50;;
38693;SDS011;24447;43.460;25.744;2022-12-29T07:32:46;32.30;;;13.40;;
38693;SDS011;24447;43.460;25.744;2022-12-29T07:35:12;34.33;;;16.15;;
38693;SDS011;24447;43.460;25.744;2022-12-29T07:37:38;64.22;;;26.42;;
38693;SDS011;24447;43.460;25.744;2022-12-29T07:40:05;97.35;;;42.35;;
38693;SDS011;24447;43.460;25.744;2022-12-29T07:42:31;127.20;;;61.63;;
38693;SDS011;24447;43.460;25.744;2022-12-29T07:44:57;86.53;;;39.95;;
38693;SDS011;24447;43.460;25.744;2022-12-29T07:47:23;72.32;;;32.15;;
38693;SDS011;24447;43.460;25.744;2022-12-29T07:49:52;71.68;;;33.00;;
38693;SDS011;24447;43.460;25.744;2022-12-29T07:52:18;70.88;;;31.50;;
38693;SDS011;24447;43.460;25.744;2022-12-29T07:54:44;64.78;;;31.73;;
38693;SDS011;24447;43.460;25.744;2022-12-29T07:57:10;67.38;;;31.77;;
38693;SDS011;24447;43.460;25.744;2022-12-29T07:59:36;109.05;;;50.67;;
38693;SDS011;24447;43.460;25.744;2022-12-29T08:02:02;143.93;;;61.78;;
38693;SDS011;24447;43.460;25.744;2022-12-29T08:04:28;116.03;;;52.85;;
38693;SDS011;24447;43.460;25.744;2022-12-29T08:06:54;99.15;;;47.80;;
38693;SDS011;24447;43.460;25.744;2022-12-29T08:09:20;99.60;;;45.08;;
38693;SDS011;24447;43.460;25.744;2022-12-29T08:11:46;100.35;;;46.72;;
38693;SDS011;24447;43.460;25.744;2022-12-29T08:14:12;78.40;;;39.92;;
38693;SDS011;24447;43.460;25.744;2022-12-29T08:16:38;81.20;;;36.17;;
38693;SDS011;24447;43.460;25.744;2022-12-29T08:19:04;49.78;;;25.85;;
38693;SDS011;24447;43.460;25.744;2022-12-29T08:21:30;56.75;;;24.40;;
38693;SDS011;24447;43.460;25.744;2022-12-29T08:23:56;60.58;;;26.33;;
38693;SDS011;24447;43.460;25.744;2022-12-29T08:26:23;50.65;;;24.85;;
38693;SDS011;24447;43.460;25.744;2022-12-29T08:28:52;72.03;;;31.63;;
38693;SDS011;24447;43.460;25.744;2022-12-29T08:31:19;49.92;;;24.40;;
38693;SDS011;24447;43.460;25.744;2022-12-29T08:33:45;58.42;;;28.25;;
38693;SDS011;24447;43.460;25.744;2022-12-29T08:36:11;61.33;;;32.67;;
38693;SDS011;24447;43.460;25.744;2022-12-29T08:38:36;72.53;;;31.58;;
38693;SDS011;24447;43.460;25.744;2022-12-29T08:41:02;62.38;;;27.83;;
38693;SDS011;24447;43.460;25.744;2022-12-29T08:43:28;69.82;;;33.85;;
38693;SDS011;24447;43.460;25.744;2022-12-29T08:45:55;62.63;;;26.08;;
38693;SDS011;24447;43.460;25.744;2022-12-29T08:48:21;56.20;;;26.08;;
38693;SDS011;24447;43.460;25.744;2022-12-29T08:50:47;37.97;;;17.15;;
38693;SDS011;24447;43.460;25.744;2022-12-29T08:53:14;38.83;;;17.38;;
38693;SDS011;24447;43.460;25.744;2022-12-29T08:55:40;39.83;;;18.75;;
38693;SDS011;24447;43.460;25.744;2022-12-29T08:58:06;29.67;;;12.05;;
38693;SDS011;24447;43.460;25.744;2022-12-29T09:00:32;43.38;;;16.10;;
38693;SDS011;24447;43.460;25.744;2022-12-29T09:03:00;39.95;;;14.55;;
38693;SDS011;24447;43.460;25.744;2022-12-29T09:05:26;27.92;;;9.70;;
38693;SDS011;24447;43.460;25.744;2022-12-29T09:07:52;24.58;;;10.07;;
38693;SDS011;24447;43.460;25.744;2022-12-29T09:10:18;29.40;;;10.18;;
38693;SDS011;24447;43.460;25.744;2022-12-29T09:12:44;26.45;;;10.52;;
38693;SDS011;24447;43.460;25.744;2022-12-29T09:15:10;41.72;;;13.40;;
38693;SDS011;24447;43.460;25.744;2022-12-29T09:17:37;25.42;;;9.15;;
38693;SDS011;24447;43.460;25.744;2022-12-29T09:20:06;25.95;;;10.55;;
38693;SDS011;24447;43.460;25.744;2022-12-29T09:22:33;27.15;;;10.57;;
38693;SDS011;24447;43.460;25.744;2022-12-29T09:25:00;23.13;;;10.27;;
38693;SDS011;24447;43.460;25.744;2022-12-29T09:27:26;29.90;;;11.07;;
38693;SDS011;24447;43.460;25.744;2022-12-29T09:29:52;25.05;;;10.57;;
38693;SDS011;24447;43.460;25.744;2022-12-29T09:32:18;42.63;;;14.07;;
38693;SDS011;24447;43.460;25.744;2022-12-29T09:34:43;34.42;;;12.35;;
38693;SDS011;24447;43.460;25.744;2022-12-29T09:37:09;28.13;;;10.30;;
38693;SDS011;24447;43.460;25.744;2022-12-29T09:39:35;32.15;;;11.95;;
38693;SDS011;24447;43.460;25.744;2022-12-29T09:47:20;35.08;;;12.70;;
38693;SDS011;24447;43.460;25.744;2022-12-29T09:49:58;50.33;;;20.10;;
38693;SDS011;24447;43.460;25.744;2022-12-29T09:52:30;34.05;;;13.45;;
38693;SDS011;24447;43.460;25.744;2022-12-29T10:05:20;46.28;;;16.77;;
38693;SDS011;24447;43.460;25.744;2022-12-29T10:08:06;25.33;;;7.28;;
38693;SDS011;24447;43.460;25.744;2022-12-29T10:13:13;21.02;;;8.52;;
38693;SDS011;24447;43.460;25.744;2022-12-29T10:24:22;20.10;;;8.93;;
38693;SDS011;24447;43.460;25.744;2022-12-29T10:26:48;25.60;;;10.88;;
38693;SDS011;24447;43.460;25.744;2022-12-29T10:29:21;31.52;;;12.02;;
38693;SDS011;24447;43.460;25.744;2022-12-29T10:31:54;44.38;;;14.60;;
38693;SDS011;24447;43.460;25.744;2022-12-29T10:34:31;44.92;;;17.10;;
38693;SDS011;24447;43.460;25.744;2022-12-29T10:37:09;32.15;;;11.68;;
38693;SDS011;24447;43.460;25.744;2022-12-29T10:39:45;23.55;;;9.82;;
38693;SDS011;24447;43.460;25.744;2022-12-29T10:44:55;63.70;;;27.33;;
38693;SDS011;24447;43.460;25.744;2022-12-29T10:47:30;25.95;;;10.43;;
38693;SDS011;24447;43.460;25.744;2022-12-29T10:49:59;22.27;;;8.45;;
38693;SDS011;24447;43.460;25.744;2022-12-29T10:52:25;22.42;;;8.35;;
38693;SDS011;24447;43.460;25.744;2022-12-29T10:55:15;19.33;;;7.85;;
38693;SDS011;24447;43.460;25.744;2022-12-29T10:57:41;21.70;;;8.13;;
38693;SDS011;24447;43.460;25.744;2022-12-29T11:08:19;29.00;;;10.07;;
38693;SDS011;24447;43.460;25.744;2022-12-29T11:10:57;21.52;;;8.60;;
38693;SDS011;24447;43.460;25.744;2022-12-29T11:13:26;23.95;;;9.90;;
38693;SDS011;24447;43.460;25.744;2022-12-29T11:15:54;24.27;;;8.65;;
38693;SDS011;24447;43.460;25.744;2022-12-29T11:18:24;19.05;;;6.75;;
38693;SDS011;24447;43.460;25.744;2022-12-29T11:20:55;22.35;;;8.20;;
38693;SDS011;24447;43.460;25.744;2022-12-29T11:26:06;24.20;;;10.15;;
38693;SDS011;24447;43.460;25.744;2022-12-29T11:31:41;22.13;;;8.05;;
38693;SDS011;24447;43.460;25.744;2022-12-29T11:34:08;21.15;;;9.05;;
38693;SDS011;24447;43.460;25.744;2022-12-29T11:36:34;21.27;;;9.05;;
38693;SDS011;24447;43.460;25.744;2022-12-29T11:39:01;19.10;;;6.50;;
38693;SDS011;24447;43.460;25.744;2022-12-29T11:41:28;18.63;;;8.35;;
38693;SDS011;24447;43.460;25.744;2022-12-29T11:43:56;21.67;;;8.02;;
38693;SDS011;24447;43.460;25.744;2022-12-29T11:46:24;23.83;;;9.07;;
38693;SDS011;24447;43.460;25.744;2022-12-29T11:48:51;17.15;;;7.40;;
38693;SDS011;24447;43.460;25.744;2022-12-29T11:51:21;20.10;;;8.52;;
38693;SDS011;24447;43.460;25.744;2022-12-29T11:53:57;24.02;;;9.13;;
38693;SDS011;24447;43.460;25.744;2022-12-29T11:56:35;23.23;;;10.00;;
38693;SDS011;24447;43.460;25.744;2022-12-29T12:04:46;25.80;;;9.45;;
38693;SDS011;24447;43.460;25.744;2022-12-29T12:07:16;20.70;;;8.85;;
38693;SDS011;24447;43.460;25.744;2022-12-29T12:09:50;21.88;;;9.10;;
38693;SDS011;24447;43.460;25.744;2022-12-29T12:13:08;19.50;;;8.25;;
38693;SDS011;24447;43.460;25.744;2022-12-29T12:15:20;20.27;;;8.55;;
38693;SDS011;24447;43.460;25.744;2022-12-29T12:23:11;28.58;;;10.85;;
38693;SDS011;24447;43.460;25.744;2022-12-29T12:25:38;21.75;;;10.45;;
38693;SDS011;24447;43.460;25.744;2022-12-29T12:28:10;24.50;;;9.95;;
38693;SDS011;24447;43.460;25.744;2022-12-29T12:30:45;24.42;;;10.75;;
38693;SDS011;24447;43.460;25.744;2022-12-29T12:33:29;25.65;;;10.07;;
38693;SDS011;24447;43.460;25.744;2022-12-29T12:39:04;24.77;;;9.65;;
38693;SDS011;24447;43.460;25.744;2022-12-29T12:44:18;34.58;;;14.77;;
38693;SDS011;24447;43.460;25.744;2022-12-29T12:50:01;28.42;;;13.43;;
38693;SDS011;24447;43.460;25.744;2022-12-29T12:55:28;26.35;;;11.13;;
38693;SDS011;24447;43.460;25.744;2022-12-29T13:11:20;27.50;;;12.90;;
38693;SDS011;24447;43.460;25.744;2022-12-29T13:19:30;32.15;;;12.07;;
38693;SDS011;24447;43.460;25.744;2022-12-29T13:27:43;26.55;;;10.90;;
38693;SDS011;24447;43.460;25.744;2022-12-29T13:30:15;25.80;;;9.98;;
38693;SDS011;24447;43.460;25.744;2022-12-29T13:32:47;29.83;;;11.85;;
38693;SDS011;24447;43.460;25.744;2022-12-29T13:35:26;28.67;;;12.32;;
38693;SDS011;24447;43.460;25.744;2022-12-29T13:41:20;32.60;;;14.48;;
38693;SDS011;24447;43.460;25.744;2022-12-29T13:43:52;30.55;;;12.85;;
38693;SDS011;24447;43.460;25.744;2022-12-29T13:46:21;39.78;;;13.52;;
38693;SDS011;24447;43.460;25.744;2022-12-29T13:48:58;33.35;;;13.07;;
38693;SDS011;24447;43.460;25.744;2022-12-29T13:51:27;43.20;;;16.58;;
38693;SDS011;24447;43.460;25.744;2022-12-29T14:07:45;40.97;;;19.13;;
38693;SDS011;24447;43.460;25.744;2022-12-29T14:15:43;31.13;;;13.57;;
38693;SDS011;24447;43.460;25.744;2022-12-29T14:18:13;27.83;;;10.27;;
38693;SDS011;24447;43.460;25.744;2022-12-29T14:20:50;29.58;;;10.52;;
38693;SDS011;24447;43.460;25.744;2022-12-29T14:23:46;28.95;;;13.63;;
38693;SDS011;24447;43.460;25.744;2022-12-29T14:28:55;29.98;;;11.30;;
38693;SDS011;24447;43.460;25.744;2022-12-29T14:36:35;20.75;;;8.57;;
38693;SDS011;24447;43.460;25.744;2022-12-29T14:39:03;54.03;;;19.30;;
38693;SDS011;24447;43.460;25.744;2022-12-29T14:41:33;51.97;;;23.50;;
38693;SDS011;24447;43.460;25.744;2022-12-29T14:44:02;66.68;;;25.73;;
38693;SDS011;24447;43.460;25.744;2022-12-29T14:46:46;75.85;;;27.02;;
38693;SDS011;24447;43.460;25.744;2022-12-29T14:49:42;53.72;;;22.33;;
38693;SDS011;24447;43.460;25.744;2022-12-29T14:52:17;37.78;;;17.00;;
38693;SDS011;24447;43.460;25.744;2022-12-29T14:57:21;52.20;;;23.60;;
38693;SDS011;24447;43.460;25.744;2022-12-29T14:59:52;29.27;;;12.98;;
38693;SDS011;24447;43.460;25.744;2022-12-29T15:02:20;33.20;;;13.20;;
38693;SDS011;24447;43.460;25.744;2022-12-29T15:04:48;57.83;;;15.60;;
38693;SDS011;24447;43.460;25.744;2022-12-29T15:07:14;45.65;;;21.73;;
38693;SDS011;24447;43.460;25.744;2022-12-29T15:10:15;35.80;;;14.32;;
38693;SDS011;24447;43.460;25.744;2022-12-29T15:12:45;31.40;;;12.75;;
38693;SDS011;24447;43.460;25.744;2022-12-29T15:17:47;26.27;;;9.68;;
38693;SDS011;24447;43.460;25.744;2022-12-29T15:20:16;24.80;;;10.20;;
38693;SDS011;24447;43.460;25.744;2022-12-29T15:22:57;28.15;;;8.60;;
38693;SDS011;24447;43.460;25.744;2022-12-29T15:25:26;23.80;;;9.82;;
38693;SDS011;24447;43.460;25.744;2022-12-29T15:27:53;27.67;;;10.80;;
38693;SDS011;24447;43.460;25.744;2022-12-29T15:30:20;29.42;;;9.55;;
38693;SDS011;24447;43.460;25.744;2022-12-29T15:32:47;29.27;;;11.10;;
38693;SDS011;24447;43.460;25.744;2022-12-29T15:37:50;23.52;;;9.90;;
38693;SDS011;24447;43.460;25.744;2022-12-29T15:40:27;25.45;;;9.13;;
38693;SDS011;24447;43.460;25.744;2022-12-29T15:43:14;30.55;;;9.88;;
38693;SDS011;24447;43.460;25.744;2022-12-29T15:46:12;38.53;;;14.82;;
38693;SDS011;24447;43.460;25.744;2022-12-29T15:48:38;28.17;;;11.68;;
38693;SDS011;24447;43.460;25.744;2022-12-29T15:51:13;20.23;;;7.97;;
38693;SDS011;24447;43.460;25.744;2022-12-29T15:53:45;36.30;;;14.88;;
38693;SDS011;24447;43.460;25.744;2022-12-29T15:56:13;39.72;;;16.83;;
38693;SDS011;24447;43.460;25.744;2022-12-29T15:58:40;37.25;;;15.35;;
38693;SDS011;24447;43.460;25.744;2022-12-29T16:01:33;33.53;;;12.30;;
38693;SDS011;24447;43.460;25.744;2022-12-29T16:04:00;24.38;;;9.38;;
38693;SDS011;24447;43.460;25.744;2022-12-29T16:06:32;23.98;;;8.95;;
38693;SDS011;24447;43.460;25.744;2022-12-29T16:11:31;31.40;;;12.57;;
38693;SDS011;24447;43.460;25.744;2022-12-29T16:14:19;32.55;;;14.98;;
38693;SDS011;24447;43.460;25.744;2022-12-29T16:16:46;45.60;;;15.10;;
38693;SDS011;24447;43.460;25.744;2022-12-29T16:19:14;31.85;;;9.93;;
38693;SDS011;24447;43.460;25.744;2022-12-29T16:24:14;45.20;;;14.57;;
38693;SDS011;24447;43.460;25.744;2022-12-29T16:26:50;36.97;;;13.98;;
38693;SDS011;24447;43.460;25.744;2022-12-29T16:29:25;36.47;;;14.73;;
38693;SDS011;24447;43.460;25.744;2022-12-29T16:31:55;28.52;;;12.32;;
38693;SDS011;24447;43.460;25.744;2022-12-29T16:37:03;50.22;;;17.33;;
38693;SDS011;24447;43.460;25.744;2022-12-29T16:39:37;43.97;;;16.17;;
38693;SDS011;24447;43.460;25.744;2022-12-29T16:48:09;46.90;;;17.02;;
38693;SDS011;24447;43.460;25.744;2022-12-29T16:50:37;58.60;;;20.17;;
38693;SDS011;24447;43.460;25.744;2022-12-29T16:53:04;57.85;;;20.38;;
38693;SDS011;24447;43.460;25.744;2022-12-29T16:55:31;82.68;;;31.73;;
38693;SDS011;24447;43.460;25.744;2022-12-29T16:57:57;80.82;;;28.95;;
38693;SDS011;24447;43.460;25.744;2022-12-29T17:00:28;120.05;;;42.20;;
38693;SDS011;24447;43.460;25.744;2022-12-29T17:02:57;95.10;;;32.90;;
38693;SDS011;24447;43.460;25.744;2022-12-29T17:05:24;82.93;;;29.88;;
38693;SDS011;24447;43.460;25.744;2022-12-29T17:07:50;84.00;;;34.08;;
38693;SDS011;24447;43.460;25.744;2022-12-29T17:10:16;68.95;;;27.60;;
38693;SDS011;24447;43.460;25.744;2022-12-29T17:12:43;70.97;;;24.38;;
38693;SDS011;24447;43.460;25.744;2022-12-29T17:15:11;42.17;;;15.90;;
38693;SDS011;24447;43.460;25.744;2022-12-29T17:22:42;39.20;;;16.40;;
38693;SDS011;24447;43.460;25.744;2022-12-29T17:25:15;35.33;;;14.73;;
38693;SDS011;24447;43.460;25.744;2022-12-29T17:30:28;32.33;;;13.63;;
38693;SDS011;24447;43.460;25.744;2022-12-29T17:32:57;34.65;;;14.07;;
38693;SDS011;24447;43.460;25.744;2022-12-29T17:35:26;52.03;;;22.70;;
38693;SDS011;24447;43.460;25.744;2022-12-29T17:37:52;44.50;;;16.98;;
38693;SDS011;24447;43.460;25.744;2022-12-29T17:40:19;35.13;;;15.43;;
38693;SDS011;24447;43.460;25.744;2022-12-29T17:42:47;38.25;;;14.40;;
38693;SDS011;24447;43.460;25.744;2022-12-29T17:45:19;37.22;;;15.75;;
38693;SDS011;24447;43.460;25.744;2022-12-29T17:47:46;36.97;;;15.15;;
38693;SDS011;24447;43.460;25.744;2022-12-29T17:50:13;44.70;;;19.42;;
38693;SDS011;24447;43.460;25.744;2022-12-29T17:52:45;43.35;;;14.98;;
38693;SDS011;24447;43.460;25.744;2022-12-29T17:55:18;43.47;;;19.23;;